Time;durP1;ratioP1;P1;durP2;ratioP2;P2;SDS_P1;SDS_P2;PMS_P1;PMS_P2;Temp;Humidity;BMP_temperature;BMP_pressure;BME280_temperature;BME280_humidity;BME280_pressure;Samples;Min_cycle;Max_cycle;Signal;HPM_P1;HPM_P2
2021/11/22 00:01:20;;;;;;;;;12.50;9.00;;;;;6.57;92.91;101376.28;5070998;27;45622;-62
2021/11/22 00:03:45;;;;;;;;;12.75;9.25;;;;;6.56;93.03;101384.88;5071944;27;45832;-62
2021/11/22 00:06:11;;;;;;;;;13.00;8.75;;;;;6.55;92.89;101376.28;5072487;27;45299;-62
2021/11/22 00:08:37;;;;;;;;;9.25;8.75;;;;;6.57;92.75;101391.78;5083601;27;45446;-62
2021/11/22 00:11:02;;;;;;;;;14.75;9.00;;;;;6.54;93.05;101387.47;5081769;27;45379;-64
2021/11/22 00:13:27;;;;;;;;;10.25;7.50;;;;;6.51;93.30;101392.63;5079353;27;45322;-64
2021/11/22 00:15:53;;;;;;;;;9.00;6.50;;;;;6.49;93.21;101396.09;5074462;28;46375;-63
2021/11/22 00:18:19;;;;;;;;;10.00;9.00;;;;;6.52;92.96;101390.91;5069687;27;45443;-64
2021/11/22 00:20:45;;;;;;;;;9.00;6.00;;;;;6.52;93.21;101394.34;5069672;27;45491;-64
2021/11/22 00:23:10;;;;;;;;;10.50;7.50;;;;;6.51;93.04;101389.19;5071287;27;46356;-63
2021/11/22 00:25:35;;;;;;;;;10.75;9.75;;;;;6.52;93.02;101393.50;5075511;27;45365;-64
2021/11/22 00:28:01;;;;;;;;;13.25;10.00;;;;;6.51;93.11;101395.22;5071735;27;45333;-64
2021/11/22 00:30:28;;;;;;;;;8.00;6.50;;;;;6.50;93.04;101400.38;5069882;27;45313;-64
2021/11/22 00:32:56;;;;;;;;;8.25;5.50;;;;;6.48;92.87;101389.19;5081390;27;45842;-64
2021/11/22 00:35:21;;;;;;;;;13.00;8.50;;;;;6.48;92.72;101390.06;5081445;27;45386;-64
2021/11/22 00:37:51;;;;;;;;;10.50;8.50;;;;;6.46;92.68;101389.22;5075943;27;45493;-64
2021/11/22 00:40:17;;;;;;;;;19.75;12.75;;;;;6.43;92.78;101386.63;5078889;27;45425;-64
2021/11/22 00:42:45;;;;;;;;;11.50;9.75;;;;;6.42;93.11;101408.16;5081113;27;45943;-64
2021/11/22 00:45:10;;;;;;;;;10.00;6.50;;;;;6.31;93.35;101402.97;5081285;27;45506;-64
2021/11/22 00:47:37;;;;;;;;;11.75;9.00;;;;;6.35;92.68;101403.81;5080181;27;45558;-64
2021/11/22 00:50:04;;;;;;;;;12.00;9.75;;;;;6.34;93.37;101404.69;5081168;27;46161;-63
2021/11/22 00:52:29;;;;;;;;;8.50;6.25;;;;;6.30;93.29;101401.25;5077796;27;45483;-62
2021/11/22 00:54:54;;;;;;;;;11.75;9.25;;;;;6.30;92.74;101403.81;5080366;27;45487;-62
2021/11/22 00:57:20;;;;;;;;;11.50;8.75;;;;;6.28;93.36;101408.13;5066094;27;45441;-63
2021/11/22 00:59:45;;;;;;;;;10.75;8.00;;;;;6.30;93.16;101411.56;5073206;27;45339;-63
2021/11/22 01:02:11;;;;;;;;;13.00;10.25;;;;;6.30;93.03;101414.16;5076860;28;45316;-63
2021/11/22 01:04:37;;;;;;;;;10.00;8.25;;;;;6.28;93.17;101410.72;5080902;27;45330;-63
2021/11/22 01:07:03;;;;;;;;;13.00;10.00;;;;;6.30;93.08;101421.03;5087844;27;45426;-63
2021/11/22 01:09:29;;;;;;;;;9.50;9.50;;;;;6.28;93.04;101407.28;5081001;27;46500;-63
2021/11/22 01:11:54;;;;;;;;;5.00;5.00;;;;;6.28;92.86;101418.44;5080630;27;45218;-63
2021/11/22 01:14:20;;;;;;;;;9.50;1.00;;;;;6.28;92.85;101413.28;5080806;27;45754;-65
2021/11/22 01:16:45;;;;;;;;;15.00;10.00;;;;;6.28;93.04;101418.44;5081384;27;45280;-65
2021/11/22 01:19:11;;;;;;;;;17.25;10.00;;;;;6.30;92.95;101433.94;5080291;28;45320;-65
2021/11/22 01:21:36;;;;;;;;;7.75;7.25;;;;;6.29;92.59;101432.22;5078409;28;45257;-62
2021/11/22 01:24:02;;;;;;;;;11.50;5.50;;;;;6.28;92.93;101438.25;5080631;27;45526;-62
2021/11/22 01:26:28;;;;;;;;;8.50;6.25;;;;;6.27;92.59;101439.09;5080060;27;45412;-62
2021/11/22 01:28:53;;;;;;;;;9.50;9.00;;;;;6.27;92.21;101439.09;5080321;28;45325;-63
2021/11/22 01:31:18;;;;;;;;;10.25;8.00;;;;;6.25;92.47;101433.94;5080005;27;45297;-63
2021/11/22 01:33:44;;;;;;;;;11.50;9.00;;;;;6.25;92.33;101439.09;5078531;27;45515;-64
2021/11/22 01:36:10;;;;;;;;;10.50;6.25;;;;;6.24;92.10;101434.81;5075008;28;45555;-64
2021/11/22 01:38:35;;;;;;;;;12.75;9.00;;;;;6.23;92.49;101438.25;5073111;27;45462;-63
2021/11/22 01:41:01;;;;;;;;;7.50;7.50;;;;;6.24;92.56;101439.97;5076247;27;45379;-64
2021/11/22 01:43:28;;;;;;;;;13.00;7.25;;;;;6.22;92.06;101439.09;5077933;27;45343;-65
2021/11/22 01:45:54;;;;;;;;;4.25;2.25;;;;;6.22;92.16;101443.41;5071443;27;45449;-64
2021/11/22 01:48:20;;;;;;;;;10.75;6.50;;;;;6.20;92.44;101443.38;5066427;27;45479;-65
2021/11/22 01:50:47;;;;;;;;;2.00;1.00;;;;;6.18;91.94;101447.66;5080098;27;45308;-64
2021/11/22 01:53:14;;;;;;;;;6.50;6.50;;;;;6.16;92.13;101448.53;5080440;27;45440;-64
2021/11/22 01:55:40;;;;;;;;;11.25;9.00;;;;;6.12;91.84;101442.50;5080006;27;45264;-64
2021/11/22 01:58:06;;;;;;;;;10.00;8.50;;;;;6.15;92.05;101446.81;5079891;27;46496;-63
2021/11/22 02:00:37;;;;;;;;;15.00;8.00;;;;;6.13;91.75;101456.28;5079883;27;45280;-63
2021/11/22 02:03:05;;;;;;;;;9.50;8.50;;;;;6.13;92.17;101459.72;5080324;27;45348;-62
2021/11/22 02:05:31;;;;;;;;;5.75;5.25;;;;;6.14;91.55;101465.72;5079641;27;45322;-63
2021/11/22 02:07:57;;;;;;;;;7.00;6.00;;;;;6.14;91.85;101463.16;5086873;27;46258;-63
2021/11/22 02:10:24;;;;;;;;;8.75;7.00;;;;;6.13;91.87;101467.47;5065876;27;45267;-63
2021/11/22 02:12:50;;;;;;;;;13.50;8.75;;;;;6.13;91.39;101474.34;5080106;28;45496;-63
2021/11/22 02:15:17;;;;;;;;;10.75;6.00;;;;;6.10;91.40;101470.03;5079878;27;45192;-63
2021/11/22 02:17:45;;;;;;;;;10.50;6.25;;;;;6.11;91.61;101479.50;5079419;27;46188;-62
2021/11/22 02:20:18;;;;;;;;;7.75;5.25;;;;;6.07;91.25;101475.19;5074801;27;45366;-62
2021/11/22 02:22:45;;;;;;;;;9.00;6.25;;;;;6.02;91.75;101476.91;5080142;27;45326;-63
2021/11/22 02:25:12;;;;;;;;;10.00;9.50;;;;;5.92;92.31;101488.03;5079291;28;45317;-63
2021/11/22 02:27:38;;;;;;;;;9.75;7.25;;;;;5.93;91.95;101479.44;5079874;27;45418;-63
2021/11/22 02:30:06;;;;;;;;;11.00;11.00;;;;;5.92;91.88;101483.72;5079452;27;45630;-63
2021/11/22 02:32:31;;;;;;;;;4.75;4.75;;;;;5.85;92.41;101476.81;5079916;27;45237;-62
2021/11/22 02:34:57;;;;;;;;;10.00;8.00;;;;;5.86;92.72;101475.09;5079512;27;45169;-62
2021/11/22 02:37:22;;;;;;;;;5.75;4.00;;;;;5.87;92.12;101489.72;5076201;27;46681;-62
2021/11/22 02:39:49;;;;;;;;;9.75;6.00;;;;;5.81;92.26;101485.41;5077571;28;45388;-62
2021/11/22 02:42:30;;;;;;;;;10.00;8.25;;;;;5.78;92.79;101483.63;5079737;28;45300;-63
2021/11/22 02:44:57;;;;;;;;;9.25;5.50;;;;;5.78;92.26;101483.63;5079293;28;45390;-63
2021/11/22 02:47:23;;;;;;;;;10.00;6.00;;;;;5.79;92.29;101487.09;5079334;27;45485;-63
2021/11/22 02:49:49;;;;;;;;;12.25;9.00;;;;;5.76;92.78;101476.75;5079533;27;45417;-63
2021/11/22 02:52:15;;;;;;;;;12.75;9.50;;;;;5.77;92.75;101481.91;5079544;27;45394;-63
2021/11/22 02:54:41;;;;;;;;;10.00;6.00;;;;;5.75;92.59;101486.22;5079496;27;45425;-63
2021/11/22 02:57:07;;;;;;;;;9.00;7.00;;;;;5.75;92.59;101490.50;5075130;28;47079;-63
2021/11/22 02:59:33;;;;;;;;;10.25;7.25;;;;;5.73;92.29;101495.66;5074688;27;45866;-63
2021/11/22 03:01:58;;;;;;;;;13.00;7.75;;;;;5.69;92.25;101493.94;5074059;27;45212;-63
2021/11/22 03:04:38;;;;;;;;;11.75;10.25;;;;;5.70;92.10;101505.09;5079534;27;45216;-63
2021/11/22 03:07:05;;;;;;;;;4.75;4.50;;;;;5.65;92.80;101505.09;5086477;27;46285;-63
2021/11/22 03:09:30;;;;;;;;;5.25;4.50;;;;;5.64;92.74;101505.94;5079416;27;45417;-62
2021/11/22 03:12:01;;;;;;;;;5.00;5.00;;;;;5.62;92.46;101499.94;5081007;27;45661;-62
2021/11/22 03:14:27;;;;;;;;;10.50;10.50;;;;;5.58;92.05;101494.72;5082597;27;45393;-62
2021/11/22 03:16:54;;;;;;;;;15.25;10.00;;;;;5.61;92.85;101512.81;5083104;27;45686;-62
2021/11/22 03:19:20;;;;;;;;;12.25;9.25;;;;;5.58;92.89;101508.47;5081767;28;45329;-62
2021/11/22 03:21:46;;;;;;;;;13.25;9.25;;;;;5.56;92.60;101512.75;5064638;28;46478;-62
2021/11/22 03:24:13;;;;;;;;;7.50;5.25;;;;;5.53;93.10;101505.00;5082572;27;45344;-62
2021/11/22 03:26:38;;;;;;;;;12.50;9.00;;;;;5.50;92.60;101520.47;5082077;27;46444;-62
2021/11/22 03:29:04;;;;;;;;;6.00;6.00;;;;;5.49;92.64;101522.19;5082468;27;45405;-63
2021/11/22 03:31:32;;;;;;;;;15.50;9.00;;;;;5.50;92.90;101517.91;5082489;27;45399;-62
2021/11/22 03:33:58;;;;;;;;;7.00;5.25;;;;;5.48;93.14;101524.75;5082630;27;45509;-63
2021/11/22 03:36:23;;;;;;;;;9.75;9.00;;;;;5.46;93.71;101529.03;5081739;27;46349;-63
2021/11/22 03:38:49;;;;;;;;;15.00;12.00;;;;;5.45;93.33;101528.19;5077120;27;45455;-63
2021/11/22 03:41:16;;;;;;;;;14.00;9.50;;;;;5.45;93.63;101530.75;5078784;27;45383;-63
2021/11/22 03:43:59;;;;;;;;;8.75;8.75;;;;;5.45;93.60;101530.75;5069302;28;45446;-63
2021/11/22 03:46:25;;;;;;;;;12.50;7.50;;;;;5.46;92.94;101531.63;5081656;27;45393;-63
2021/11/22 03:48:51;;;;;;;;;15.50;11.00;;;;;5.46;93.01;101531.63;5082212;27;45482;-63
2021/11/22 03:51:18;;;;;;;;;7.00;3.50;;;;;5.45;93.50;101535.91;5081811;27;45429;-63
2021/11/22 03:53:43;;;;;;;;;9.00;8.00;;;;;5.45;93.43;101535.91;5082174;27;45240;-63
2021/11/22 03:56:10;;;;;;;;;11.25;7.50;;;;;5.44;93.41;101535.91;5081440;28;47725;-64
2021/11/22 03:58:36;;;;;;;;;12.50;9.00;;;;;5.43;93.12;101542.78;5081880;27;45235;-63
2021/11/22 04:01:01;;;;;;;;;8.50;6.50;;;;;5.44;93.12;101548.81;5078034;27;45444;-63
2021/11/22 04:03:26;;;;;;;;;16.00;10.50;;;;;5.43;92.79;101545.34;5070844;27;45425;-63
2021/11/22 04:05:52;;;;;;;;;12.50;8.75;;;;;5.41;92.97;101549.66;5072358;27;46709;-63
2021/11/22 04:08:18;;;;;;;;;10.00;8.00;;;;;5.42;92.86;101548.78;5074183;27;45465;-62
2021/11/22 04:10:44;;;;;;;;;16.75;10.25;;;;;5.41;93.05;101553.94;5070925;27;45248;-61
2021/11/22 04:13:10;;;;;;;;;17.75;12.50;;;;;5.41;93.26;101543.63;5074228;28;45522;-61
2021/11/22 04:15:36;;;;;;;;;14.00;10.25;;;;;5.41;93.86;101553.94;5073439;27;45349;-63
2021/11/22 04:18:03;;;;;;;;;9.25;9.00;;;;;5.42;93.01;101553.94;5069609;28;45319;-64
2021/11/22 04:20:29;;;;;;;;;15.25;10.25;;;;;5.43;93.03;101562.53;5068094;27;45521;-63
2021/11/22 04:22:54;;;;;;;;;9.00;6.00;;;;;5.40;92.99;101554.75;5069409;27;45241;-63
2021/11/22 04:25:20;;;;;;;;;11.25;8.25;;;;;5.41;93.35;101567.69;5070012;27;46311;-63
2021/11/22 04:27:47;;;;;;;;;12.00;9.75;;;;;5.39;93.04;101571.06;5068739;27;45390;-63
2021/11/22 04:30:13;;;;;;;;;13.00;10.00;;;;;5.39;93.08;101581.38;5069417;27;45436;-70
2021/11/22 04:32:39;;;;;;;;;13.00;9.00;;;;;5.38;93.86;101570.22;5071247;27;45497;-70
2021/11/22 04:35:07;;;;;;;;;16.75;8.50;;;;;5.34;93.44;101568.47;5071184;28;47332;-68
2021/11/22 04:37:33;;;;;;;;;13.75;9.50;;;;;5.36;93.30;101574.50;5065181;28;45566;-68
2021/11/22 04:39:59;;;;;;;;;9.50;8.00;;;;;5.36;93.34;101573.63;5065208;27;45587;-68
2021/11/22 04:42:25;;;;;;;;;12.75;11.25;;;;;5.35;93.89;101577.94;5067181;28;45500;-69
2021/11/22 04:44:52;;;;;;;;;14.50;9.75;;;;;5.35;93.22;101579.66;5067430;27;45501;-70
2021/11/22 04:47:20;;;;;;;;;14.75;12.50;;;;;5.35;93.06;101588.25;5066574;27;46092;-63
2021/11/22 04:49:49;;;;;;;;;10.50;9.75;;;;;5.34;93.89;101595.97;5068724;28;45709;-64
2021/11/22 04:52:15;;;;;;;;;16.25;12.25;;;;;5.35;93.51;101613.16;5075240;27;45381;-64
2021/11/22 04:54:41;;;;;;;;;13.00;10.00;;;;;5.35;93.77;101600.25;5071398;27;45316;-63
2021/11/22 04:57:07;;;;;;;;;13.00;8.25;;;;;5.35;93.10;101595.13;5071208;27;45190;-63
2021/11/22 04:59:34;;;;;;;;;14.00;12.00;;;;;5.35;93.20;101606.28;5069169;28;45500;-66
2021/11/22 05:02:00;;;;;;;;;13.25;10.25;;;;;5.34;93.47;101607.13;5070151;27;45386;-69
2021/11/22 05:04:26;;;;;;;;;8.50;6.00;;;;;5.35;93.60;101605.41;5067835;27;45478;-68
2021/11/22 05:06:51;;;;;;;;;13.00;11.25;;;;;5.33;94.15;101610.56;5074178;27;45418;-67
2021/11/22 05:09:19;;;;;;;;;12.50;9.00;;;;;5.33;93.55;101604.56;5072003;27;45507;-67
2021/11/22 05:11:44;;;;;;;;;11.00;10.00;;;;;5.29;94.25;101616.56;5070858;27;45405;-61
2021/11/22 05:14:10;;;;;;;;;16.75;12.00;;;;;5.30;93.69;101617.41;5072712;27;45508;-62
2021/11/22 05:16:37;;;;;;;;;13.25;10.25;;;;;5.28;94.24;101619.97;5071075;27;45355;-62
2021/11/22 05:19:03;;;;;;;;;15.25;10.00;;;;;5.25;93.94;101622.53;5070791;27;45489;-63
2021/11/22 05:21:31;;;;;;;;;14.25;11.25;;;;;5.25;94.34;101638.00;5071384;27;45539;-63
2021/11/22 05:23:56;;;;;;;;;24.00;17.50;;;;;5.23;93.46;101636.25;5069176;28;46370;-63
2021/11/22 05:26:21;;;;;;;;;15.50;12.75;;;;;5.24;93.73;101640.56;5067913;27;45371;-63
2021/11/22 05:28:47;;;;;;;;;8.75;8.50;;;;;5.24;93.77;101645.72;5068329;27;45510;-62
2021/11/22 05:31:12;;;;;;;;;17.25;12.25;;;;;5.22;93.53;101644.84;5074326;27;45408;-63
2021/11/22 05:33:38;;;;;;;;;20.75;16.00;;;;;5.21;93.22;101648.28;5068849;27;47182;-62
2021/11/22 05:36:03;;;;;;;;;16.25;13.50;;;;;5.19;94.17;101645.66;5068288;27;45392;-62
2021/11/22 05:38:28;;;;;;;;;17.00;14.00;;;;;5.19;94.05;101656.81;5068315;28;45399;-62
2021/11/22 05:40:54;;;;;;;;;14.75;11.00;;;;;5.17;93.77;101648.22;5069014;28;45371;-62
2021/11/22 05:43:19;;;;;;;;;16.25;12.75;;;;;5.19;94.26;101656.81;5069089;27;46323;-62
2021/11/22 05:45:45;;;;;;;;;14.25;11.00;;;;;5.13;94.42;101664.50;5067623;27;45298;-62
2021/11/22 05:48:10;;;;;;;;;12.75;11.25;;;;;5.18;94.58;101657.69;5067921;27;45397;-62
2021/11/22 05:50:37;;;;;;;;;15.50;14.50;;;;;5.24;94.11;101658.59;5068176;28;45473;-63
2021/11/22 05:53:05;;;;;;;;;13.50;13.00;;;;;5.27;94.44;101667.22;5067689;28;48272;-63
2021/11/22 05:55:35;;;;;;;;;23.00;16.00;;;;;5.32;94.06;101672.41;5064327;28;45343;-62
2021/11/22 05:58:03;;;;;;;;;22.75;18.00;;;;;5.38;94.24;101668.16;5067034;28;45423;-63
2021/11/22 06:00:28;;;;;;;;;17.75;15.00;;;;;5.43;93.93;101681.97;5066916;27;45600;-62
2021/11/22 06:02:54;;;;;;;;;20.00;14.00;;;;;5.50;93.67;101665.69;5067774;28;46072;-63
2021/11/22 06:05:19;;;;;;;;;25.00;19.50;;;;;5.55;93.73;101688.94;5067710;27;45355;-63
2021/11/22 06:07:45;;;;;;;;;19.00;16.50;;;;;5.57;93.81;101683.78;5071911;27;45371;-63
2021/11/22 06:10:11;;;;;;;;;28.25;20.75;;;;;5.62;93.54;101693.31;5072360;28;45475;-64
2021/11/22 06:12:36;;;;;;;;;24.25;17.00;;;;;5.67;93.30;101695.91;5065753;28;47987;-63
2021/11/22 06:15:02;;;;;;;;;22.00;18.50;;;;;5.70;93.02;101706.25;5069994;28;45707;-62
2021/11/22 06:17:27;;;;;;;;;36.75;24.75;;;;;5.72;92.92;101699.38;5067691;27;45242;-63
2021/11/22 06:19:54;;;;;;;;;25.50;22.25;;;;;5.76;93.26;101707.16;5066297;27;45563;-63
2021/11/22 06:22:19;;;;;;;;;20.50;15.75;;;;;5.78;92.93;101709.75;5068953;27;45624;-62
2021/11/22 06:24:45;;;;;;;;;24.00;21.50;;;;;5.83;93.08;101720.13;5076354;28;45183;-61
2021/11/22 06:27:10;;;;;;;;;16.75;13.50;;;;;5.79;92.64;101729.53;5078686;27;45483;-61
2021/11/22 06:29:38;;;;;;;;;22.25;17.00;;;;;5.83;93.04;101723.56;5078849;27;45177;-61
2021/11/22 06:32:10;;;;;;;;;28.00;22.25;;;;;5.82;93.02;101727.00;5072004;28;45413;-61
2021/11/22 06:34:35;;;;;;;;;27.25;19.50;;;;;5.87;92.65;101735.63;5078629;27;45517;-61
2021/11/22 06:37:00;;;;;;;;;24.00;22.25;;;;;5.91;92.89;101736.53;5078194;27;45345;-61
2021/11/22 06:39:26;;;;;;;;;26.00;21.25;;;;;5.95;92.59;101743.44;5061308;28;45495;-61
2021/11/22 06:41:51;;;;;;;;;23.25;22.50;;;;;5.96;92.25;101747.75;5078965;27;46817;-62
2021/11/22 06:44:19;;;;;;;;;30.00;20.25;;;;;6.00;92.54;101758.09;5077741;27;46488;-62
2021/11/22 06:46:48;;;;;;;;;18.00;15.50;;;;;6.04;91.99;101761.59;5080643;27;45404;-62
2021/11/22 06:49:13;;;;;;;;;22.25;11.75;;;;;6.06;91.97;101762.47;5082433;27;45322;-60
2021/11/22 06:51:39;;;;;;;;;21.25;19.50;;;;;6.09;92.43;101772.81;5081352;27;47029;-63
2021/11/22 06:54:04;;;;;;;;;32.50;19.75;;;;;6.15;91.82;101765.09;5082072;27;45456;-64
2021/11/22 06:56:29;;;;;;;;;25.00;17.50;;;;;6.19;91.92;101771.13;5082489;27;45324;-62
2021/11/22 06:58:55;;;;;;;;;26.25;21.00;;;;;6.22;92.34;101779.78;5068621;27;45267;-63
2021/11/22 07:01:20;;;;;;;;;22.25;17.00;;;;;6.25;91.65;101782.41;5080807;27;45413;-62
2021/11/22 07:03:46;;;;;;;;;21.50;18.00;;;;;6.31;91.85;101790.16;5080937;27;45192;-63
2021/11/22 07:06:11;;;;;;;;;19.50;16.75;;;;;6.34;91.26;101785.03;5083856;27;45384;-63
2021/11/22 07:08:37;;;;;;;;;22.00;19.50;;;;;6.38;91.59;101785.91;5084107;27;45347;-63
2021/11/22 07:11:02;;;;;;;;;15.50;12.00;;;;;6.37;91.51;101797.94;5080934;27;46067;-62
2021/11/22 07:13:30;;;;;;;;;21.25;17.75;;;;;6.39;91.02;101790.22;5081204;27;45366;-64
2021/11/22 07:15:56;;;;;;;;;14.25;11.00;;;;;6.38;90.77;101799.66;5082750;27;45545;-64
2021/11/22 07:18:21;;;;;;;;;30.75;25.50;;;;;6.38;91.15;101791.06;5080640;27;45387;-70
2021/11/22 07:20:47;;;;;;;;;23.75;18.50;;;;;6.38;91.14;101807.41;5075724;27;47106;-68
2021/11/22 07:23:14;;;;;;;;;22.00;20.75;;;;;6.39;90.67;101810.88;5081231;27;45681;-68
2021/11/22 07:25:39;;;;;;;;;18.00;18.00;;;;;6.43;90.77;101810.06;5081988;27;45379;-62
2021/11/22 07:28:05;;;;;;;;;20.25;14.50;;;;;6.46;90.20;101830.72;5079828;28;45289;-65
2021/11/22 07:30:30;;;;;;;;;21.50;17.00;;;;;6.48;89.80;101823.84;5081960;28;46314;-66
2021/11/22 07:32:56;;;;;;;;;22.00;16.00;;;;;6.48;89.62;101828.16;5080702;27;45242;-67
2021/11/22 07:35:23;;;;;;;;;21.75;15.50;;;;;6.53;90.59;101827.31;5079700;27;45236;-66
2021/11/22 07:37:49;;;;;;;;;23.50;19.75;;;;;6.54;90.41;101830.75;5074782;27;45541;-67
2021/11/22 07:40:16;;;;;;;;;24.00;14.75;;;;;6.58;90.01;101835.09;5080964;27;45556;-66
2021/11/22 07:42:41;;;;;;;;;16.75;13.25;;;;;6.61;89.97;101851.50;5079777;27;45514;-66
2021/11/22 07:45:07;;;;;;;;;21.75;14.00;;;;;6.59;89.11;101862.66;5081681;27;45310;-66
2021/11/22 07:47:33;;;;;;;;;19.00;15.00;;;;;6.59;89.47;101848.00;5081500;27;45213;-66
2021/11/22 07:49:58;;;;;;;;;16.50;13.50;;;;;6.64;88.72;101864.44;5080876;27;46254;-67
2021/11/22 07:52:26;;;;;;;;;17.25;8.50;;;;;6.63;87.47;101869.59;5081147;27;45356;-67
2021/11/22 07:54:52;;;;;;;;;12.75;10.00;;;;;6.70;88.65;101871.34;5080920;27;45185;-66
2021/11/22 07:57:17;;;;;;;;;18.50;17.50;;;;;6.73;88.28;101866.19;5081147;27;45652;-66
2021/11/22 07:59:43;;;;;;;;;25.25;14.75;;;;;6.74;88.24;101873.09;5081466;27;45688;-66
2021/11/22 08:02:09;;;;;;;;;15.75;13.00;;;;;6.77;87.21;101880.00;5081310;27;45426;-66
2021/11/22 08:04:34;;;;;;;;;18.50;17.25;;;;;6.78;88.44;101885.16;5081539;27;45318;-66
2021/11/22 08:07:09;;;;;;;;;28.00;16.00;;;;;6.79;87.87;101892.06;5088330;27;45521;-66
2021/11/22 08:09:41;;;;;;;;;14.50;13.25;;;;;6.76;86.73;101881.72;5076668;28;47058;-65
2021/11/22 08:14:41;;;;;;;;;16.75;15.00;;;;;6.83;88.14;101888.66;5076094;27;45486;-69
2021/11/22 08:17:09;;;;;;;;;14.25;12.25;;;;;6.88;87.41;101892.13;5068845;27;45233;-68
2021/11/22 08:19:34;;;;;;;;;11.75;8.00;;;;;6.90;86.33;101895.59;5067870;28;46216;-67
2021/11/22 08:22:00;;;;;;;;;17.00;14.00;;;;;6.92;86.83;101893.88;5078598;28;45456;-69
2021/11/22 08:24:26;;;;;;;;;13.75;12.25;;;;;6.95;86.49;101898.19;5081308;27;45269;-67
2021/11/22 08:26:54;;;;;;;;;13.00;13.00;;;;;6.97;85.95;101901.66;5081003;27;45575;-69
2021/11/22 08:29:20;;;;;;;;;9.00;9.00;;;;;7.04;86.10;101907.75;5081171;27;45667;-69
2021/11/22 08:31:45;;;;;;;;;15.75;11.50;;;;;7.08;86.43;101905.16;5078819;27;45830;-68
2021/11/22 08:34:11;;;;;;;;;16.25;13.25;;;;;7.14;85.88;101905.19;5079773;28;45305;-67
2021/11/22 08:36:37;;;;;;;;;11.50;11.50;;;;;7.19;86.52;101921.59;5080820;27;45404;-68
2021/11/22 08:39:04;;;;;;;;;16.75;14.25;;;;;7.24;86.26;101908.72;5075819;27;45788;-69
2021/11/22 08:41:29;;;;;;;;;19.50;18.00;;;;;7.29;86.04;101897.53;5080132;27;45354;-67
2021/11/22 08:43:55;;;;;;;;;14.00;10.50;;;;;7.34;85.17;101913.06;5080142;27;45310;-68
2021/11/22 08:46:20;;;;;;;;;19.00;11.75;;;;;7.40;84.23;101919.97;5080475;27;45276;-67
2021/11/22 08:48:46;;;;;;;;;9.25;7.00;;;;;7.41;83.61;101919.09;5080546;27;45449;-68
2021/11/22 08:51:11;;;;;;;;;15.75;10.25;;;;;7.42;83.69;101921.72;5080169;27;45369;-66
2021/11/22 08:53:37;;;;;;;;;12.25;10.50;;;;;7.45;83.32;101929.50;5079253;28;45425;-63
2021/11/22 08:56:02;;;;;;;;;9.50;9.50;;;;;7.50;84.07;101925.19;5080374;27;45422;-65
2021/11/22 08:58:28;;;;;;;;;12.75;12.50;;;;;7.51;83.35;101937.28;5080295;27;46288;-65
2021/11/22 09:00:53;;;;;;;;;14.00;10.75;;;;;7.54;82.35;101937.28;5080236;27;45243;-65
2021/11/22 09:03:19;;;;;;;;;15.00;13.50;;;;;7.58;83.20;101940.75;5080787;27;45319;-60
2021/11/22 09:05:44;;;;;;;;;10.50;9.00;;;;;7.65;82.10;101952.00;5078560;28;45226;-62
2021/11/22 09:08:11;;;;;;;;;9.00;8.75;;;;;7.68;81.82;101944.25;5074417;27;45626;-61
2021/11/22 09:10:37;;;;;;;;;14.25;12.00;;;;;7.73;82.27;101952.88;5079591;27;45234;-61
2021/11/22 09:13:03;;;;;;;;;11.75;10.25;;;;;7.81;82.94;101957.25;5078958;28;45414;-60
2021/11/22 09:15:29;;;;;;;;;14.25;11.00;;;;;7.94;83.09;101953.81;5080358;27;45448;-60
2021/11/22 09:17:54;;;;;;;;;10.75;10.25;;;;;7.99;79.71;101951.22;5079706;28;45472;-61
2021/11/22 09:20:21;;;;;;;;;13.25;10.75;;;;;8.06;80.72;101971.09;5075062;27;45362;-61
2021/11/22 09:22:46;;;;;;;;;13.25;11.75;;;;;8.07;81.93;101959.03;5077533;27;45575;-61
2021/11/22 09:25:12;;;;;;;;;15.25;11.50;;;;;8.07;80.43;101959.91;5068440;27;46344;-62
2021/11/22 09:27:37;;;;;;;;;14.75;11.00;;;;;8.01;79.16;101978.00;5069163;27;46156;-62
2021/11/22 09:30:05;;;;;;;;;13.25;9.50;;;;;8.02;78.97;101969.38;5071687;27;45354;-59
2021/11/22 09:32:31;;;;;;;;;9.00;0.00;;;;;7.96;78.57;101982.28;5068559;27;45259;-59
2021/11/22 09:34:56;;;;;;;;;11.25;9.75;;;;;7.86;78.62;101965.88;5068574;27;45481;-59
2021/11/22 09:37:22;;;;;;;;;10.50;9.25;;;;;7.90;78.38;101970.19;5069495;27;45377;-58
2021/11/22 09:39:48;;;;;;;;;14.50;10.00;;;;;7.95;78.59;101980.56;5069380;27;45339;-59
2021/11/22 09:42:14;;;;;;;;;13.50;10.00;;;;;8.01;79.20;101990.06;5067466;28;45341;-61
2021/11/22 09:44:39;;;;;;;;;11.00;7.75;;;;;7.96;78.07;101984.88;5071384;27;45361;-61
2021/11/22 09:47:05;;;;;;;;;12.00;6.50;;;;;7.94;78.22;101990.03;5079482;27;45436;-60
2021/11/22 09:49:31;;;;;;;;;9.50;8.00;;;;;8.03;79.08;101990.94;5079137;28;45358;-61
2021/11/22 09:51:57;;;;;;;;;13.25;12.00;;;;;8.05;78.50;102002.19;5079863;27;45313;-60
2021/11/22 09:54:22;;;;;;;;;9.50;8.25;;;;;8.12;78.24;101998.72;5074048;27;45272;-59
2021/11/22 09:56:50;;;;;;;;;11.00;8.75;;;;;8.15;76.20;101999.59;5071884;27;45465;-59
2021/11/22 09:59:17;;;;;;;;;11.50;6.00;;;;;8.33;77.66;102001.38;5079478;27;45442;-60
2021/11/22 10:01:42;;;;;;;;;12.25;7.25;;;;;8.68;77.31;102009.22;5080028;27;45299;-59
2021/11/22 10:04:14;;;;;;;;;11.00;8.25;;;;;9.23;78.27;102006.63;5079263;27;45381;-59
2021/11/22 10:06:54;;;;;;;;;10.75;6.00;;;;;9.69;74.61;102009.94;5086245;27;46202;-60
2021/11/22 10:09:32;;;;;;;;;11.50;8.50;;;;;9.87;75.21;102006.44;5079772;27;45333;-62
2021/11/22 10:12:06;;;;;;;;;13.00;8.00;;;;;9.68;69.30;102004.78;5079469;27;45330;-60
2021/11/22 10:14:45;;;;;;;;;9.00;6.00;;;;;9.29;71.67;102014.38;5079389;27;45468;-59
2021/11/22 10:17:19;;;;;;;;;9.00;8.00;;;;;9.10;72.51;102010.94;5076584;28;45525;-61
2021/11/22 10:19:45;;;;;;;;;8.75;8.50;;;;;9.15;73.74;102013.53;5077185;27;46296;-62
2021/11/22 10:22:20;;;;;;;;;5.25;4.00;;;;;9.15;72.52;102011.81;5081702;27;45163;-62
2021/11/22 10:24:45;;;;;;;;;12.50;10.25;;;;;8.97;71.85;102016.13;5082841;27;45450;-61
2021/11/22 10:27:11;;;;;;;;;10.00;8.75;;;;;8.84;72.28;102025.66;5081745;27;45517;-63
2021/11/22 10:29:36;;;;;;;;;9.50;7.50;;;;;8.69;71.80;102020.47;5082705;27;45370;-64
2021/11/22 10:32:04;;;;;;;;;12.75;9.25;;;;;8.59;72.39;102027.34;5083178;27;45500;-61
2021/11/22 10:34:35;;;;;;;;;9.00;7.75;;;;;8.57;71.34;102021.31;5082296;27;45340;-61
2021/11/22 10:37:04;;;;;;;;;11.50;8.00;;;;;8.61;73.19;102025.66;5082506;27;46091;-60
2021/11/22 10:39:30;;;;;;;;;11.75;6.25;;;;;8.67;72.80;102036.00;5078061;27;45344;-61
2021/11/22 10:41:56;;;;;;;;;10.75;8.00;;;;;8.59;71.25;102037.72;5082518;27;45380;-60
2021/11/22 10:44:28;;;;;;;;;11.00;7.25;;;;;8.52;72.62;102047.22;5082154;27;45432;-61
2021/11/22 10:46:56;;;;;;;;;10.25;10.00;;;;;8.46;72.93;102046.34;5082273;27;46267;-59
2021/11/22 10:49:52;;;;;;;;;10.00;10.00;;;;;8.36;71.36;102034.22;5082381;27;45394;-61
2021/11/22 10:52:34;;;;;;;;;12.00;10.00;;;;;8.37;73.28;102035.94;5068748;27;45350;-60
2021/11/22 10:55:11;;;;;;;;;14.00;12.00;;;;;8.56;73.42;102032.53;5082118;27;45319;-60
2021/11/22 10:57:46;;;;;;;;;9.75;7.00;;;;;8.84;73.21;102029.13;5081826;27;45416;-61
2021/11/22 11:00:17;;;;;;;;;7.75;7.25;;;;;9.50;73.47;102034.22;5081600;27;45420;-61
2021/11/22 11:02:43;;;;;;;;;11.00;9.25;;;;;11.13;71.25;102029.88;5069547;27;45536;-61
2021/11/22 11:05:09;;;;;;;;;16.00;12.25;;;;;11.01;69.61;102045.56;5081674;27;45472;-61
2021/11/22 11:07:34;;;;;;;;;13.25;11.50;;;;;10.60;68.64;102047.59;5088256;27;45511;-61
2021/11/22 11:10:00;;;;;;;;;8.50;6.75;;;;;10.19;65.43;102036.56;5081603;27;45389;-61
2021/11/22 11:12:26;;;;;;;;;9.50;7.00;;;;;9.68;64.95;102044.56;5081438;27;45335;-60
2021/11/22 11:14:55;;;;;;;;;9.75;7.00;;;;;9.33;67.89;102036.00;5081348;27;45867;-62
2021/11/22 11:17:38;;;;;;;;;11.75;10.25;;;;;9.13;68.35;102026.50;5080725;27;46405;-62
2021/11/22 11:20:10;;;;;;;;;11.75;8.50;;;;;8.93;68.76;102048.13;5076063;28;45268;-58
2021/11/22 11:22:35;;;;;;;;;6.50;6.50;;;;;8.82;68.59;102045.53;5081558;27;45400;-58
2021/11/22 11:25:02;;;;;;;;;13.75;10.75;;;;;8.72;68.38;102039.47;5081079;27;45428;-58